createdAt,value
2018-01-03T00:00:43.175Z,7.27
2018-01-03T00:03:11.430Z,11.23
2018-01-03T00:05:39.722Z,6.30
2018-01-03T00:08:08.051Z,8.90
2018-01-03T00:10:36.349Z,9.33
2018-01-03T00:13:05.415Z,18.90
2018-01-03T00:15:34.117Z,20.30
2018-01-03T00:18:03.697Z,16.70
2018-01-03T00:20:33.167Z,16.97
2018-01-03T00:23:02.723Z,8.57
2018-01-03T00:25:32.011Z,10.77
2018-01-03T00:28:01.626Z,27.43
2018-01-03T00:30:31.111Z,15.40
2018-01-03T00:33:00.027Z,11.40
2018-01-03T00:35:29.012Z,7.80
2018-01-03T00:37:57.350Z,13.00
2018-01-03T00:40:26.336Z,25.30
2018-01-03T00:42:54.583Z,17.87
2018-01-03T00:45:22.944Z,11.57
2018-01-03T00:47:51.176Z,12.13
2018-01-03T00:50:20.766Z,10.63
2018-01-03T00:52:50.254Z,7.10
2018-01-03T00:55:19.891Z,11.93
2018-01-03T00:57:48.120Z,9.67
2018-01-03T01:00:16.404Z,16.13
2018-01-03T01:02:46.016Z,15.50
2018-01-03T01:05:14.884Z,10.37
2018-01-03T01:07:44.661Z,8.77
2018-01-03T01:10:13.671Z,10.50
2018-01-03T01:12:43.252Z,8.97
2018-01-03T01:15:12.159Z,7.43
2018-01-03T01:17:41.759Z,5.10
2018-01-03T01:20:10.276Z,7.77
2018-01-03T01:22:38.540Z,9.83
2018-01-03T01:25:06.821Z,7.40
2018-01-03T01:27:35.028Z,8.63
2018-01-03T01:30:04.656Z,9.10
2018-01-03T01:32:33.538Z,17.93
2018-01-03T01:35:01.768Z,11.30
2018-01-03T01:37:30.044Z,9.27
2018-01-03T01:39:59.031Z,14.73
2018-01-03T01:42:27.263Z,8.40
2018-01-03T01:44:55.555Z,7.37
2018-01-03T01:47:25.292Z,13.63
2018-01-03T01:49:53.540Z,18.00
2018-01-03T01:52:21.896Z,24.10
2018-01-03T01:54:50.128Z,16.03
2018-01-03T01:57:18.829Z,7.83
2018-01-03T01:59:48.033Z,17.00
2018-01-03T02:02:16.264Z,15.77
2018-01-03T02:04:44.523Z,18.67
2018-01-03T02:07:12.789Z,23.30
2018-01-03T02:09:41.024Z,18.73
2018-01-03T02:12:09.263Z,19.43
2018-01-03T02:14:37.581Z,16.27
2018-01-03T02:17:07.337Z,16.17
2018-01-03T02:19:36.709Z,9.73
2018-01-03T02:22:06.599Z,17.87
2018-01-03T02:24:36.099Z,31.47
2018-01-03T02:27:05.391Z,10.70
2018-01-03T02:29:33.688Z,27.77
2018-01-03T02:32:03.454Z,29.90
2018-01-03T02:34:31.699Z,20.63
2018-01-03T02:37:01.335Z,25.17
2018-01-03T02:39:29.845Z,35.67
2018-01-03T02:41:59.440Z,27.43
2018-01-03T02:44:28.773Z,32.57
2018-01-03T02:46:56.992Z,31.90
2018-01-03T02:49:26.368Z,16.80
2018-01-03T02:51:54.641Z,28.47
2018-01-03T02:54:24.228Z,33.03
2018-01-03T02:56:52.783Z,24.43
2018-01-03T02:59:22.426Z,20.70
2018-01-03T03:01:50.933Z,20.30
2018-01-03T03:04:19.173Z,33.27
2018-01-03T03:06:48.819Z,22.23
2018-01-03T03:09:16.924Z,32.37
2018-01-03T03:11:45.164Z,24.97
2018-01-03T03:14:13.431Z,17.17
2018-01-03T03:16:41.667Z,23.50
2018-01-03T03:19:09.897Z,31.33
2018-01-03T03:21:38.172Z,22.80
2018-01-03T03:24:06.428Z,15.97
2018-01-03T03:26:36.069Z,16.97
2018-01-03T03:29:04.281Z,18.97
2018-01-03T03:31:32.521Z,17.13
2018-01-03T03:34:00.733Z,9.20
2018-01-03T03:36:28.992Z,10.33
2018-01-03T03:38:58.585Z,12.57
2018-01-03T03:41:27.444Z,8.53
2018-01-03T03:43:57.068Z,7.60
2018-01-03T03:46:26.519Z,6.90
2018-01-03T03:48:55.022Z,5.80
2018-01-03T03:51:24.654Z,3.60
2018-01-03T03:53:53.175Z,7.23
2018-01-03T03:56:21.400Z,3.67
2018-01-03T03:58:49.656Z,4.23
2018-01-03T04:01:19.396Z,3.33
2018-01-03T04:03:48.996Z,2.77
2018-01-03T04:06:17.524Z,4.47
2018-01-03T04:08:45.739Z,2.67
2018-01-03T04:11:14.005Z,2.10
2018-01-03T04:13:42.624Z,2.13
2018-01-03T04:16:10.876Z,4.60
2018-01-03T04:18:40.492Z,5.87
2018-01-03T04:21:09.001Z,7.03
2018-01-03T04:23:37.242Z,16.40
2018-01-03T04:26:06.868Z,8.73
2018-01-03T04:28:35.008Z,21.17
2018-01-03T04:31:04.828Z,16.00
2018-01-03T04:33:33.163Z,15.87
2018-01-03T04:36:01.396Z,15.40
2018-01-03T04:38:29.628Z,10.47
2018-01-03T04:40:57.916Z,4.97
2018-01-03T04:43:27.521Z,4.20
2018-01-03T04:45:56.004Z,3.90
2018-01-03T04:48:25.768Z,3.20
2018-01-03T04:50:53.997Z,5.70
2018-01-03T04:53:22.259Z,2.40
2018-01-03T04:55:51.906Z,4.67
2018-01-03T04:58:20.768Z,3.10
2018-01-03T05:00:49.008Z,2.50
2018-01-03T05:03:17.255Z,5.13
2018-01-03T05:05:45.476Z,3.33
2018-01-03T05:08:14.468Z,1.40
2018-01-03T05:10:42.740Z,7.90
2018-01-03T05:13:10.960Z,2.40
2018-01-03T05:15:39.196Z,1.97
2018-01-03T05:18:07.481Z,2.30
2018-01-03T05:20:35.677Z,5.40
2018-01-03T05:23:03.897Z,3.00
2018-01-03T05:25:32.148Z,4.70
2018-01-03T05:28:01.723Z,3.97
2018-01-03T05:30:29.824Z,4.80
2018-01-03T05:32:58.124Z,7.40
2018-01-03T05:35:26.344Z,6.33
2018-01-03T05:37:54.587Z,5.53
2018-01-03T05:40:24.368Z,10.33
2018-01-03T05:42:52.993Z,23.33
2018-01-03T05:45:21.219Z,5.67
2018-01-03T05:47:50.244Z,6.33
2018-01-03T05:50:19.240Z,6.63
2018-01-03T05:52:48.232Z,8.53
2018-01-03T05:55:17.838Z,5.87
2018-01-03T05:57:46.716Z,5.33
2018-01-03T06:00:14.944Z,7.40
2018-01-03T06:02:43.225Z,5.53
2018-01-03T06:05:11.477Z,4.57
2018-01-03T06:07:39.728Z,6.97
2018-01-03T06:10:09.162Z,6.53
2018-01-03T06:12:38.206Z,10.07
2018-01-03T06:15:06.429Z,14.63
2018-01-03T06:17:34.704Z,6.00
2018-01-03T06:20:04.441Z,6.77
2018-01-03T06:22:32.660Z,9.77
2018-01-03T06:25:01.393Z,7.33
2018-01-03T06:27:30.016Z,5.20
2018-01-03T06:29:58.264Z,8.27
2018-01-03T06:32:27.332Z,11.57
2018-01-03T06:34:56.946Z,17.23
2018-01-03T06:37:26.565Z,10.83
2018-01-03T06:39:56.224Z,18.53
2018-01-03T06:42:25.675Z,20.47
2018-01-03T06:44:55.140Z,13.93
2018-01-03T06:47:24.804Z,21.63
2018-01-03T06:49:53.054Z,9.67
2018-01-03T06:52:22.044Z,9.97
2018-01-03T06:54:50.320Z,22.93
2018-01-03T06:57:18.551Z,17.93
2018-01-03T06:59:47.944Z,19.13
2018-01-03T07:02:16.216Z,19.10
2018-01-03T07:04:44.457Z,19.97
2018-01-03T07:07:12.714Z,28.63
2018-01-03T07:09:42.343Z,3.20
2018-01-03T07:12:11.962Z,2.13
2018-01-03T07:14:41.557Z,3.10
2018-01-03T07:17:10.124Z,9.53
2018-01-03T07:19:38.345Z,7.73
2018-01-03T07:22:06.568Z,13.57
2018-01-03T07:24:34.859Z,13.40
2018-01-03T07:27:03.099Z,5.50
2018-01-03T07:29:31.324Z,14.43
2018-01-03T07:32:01.224Z,14.60
2018-01-03T07:34:29.476Z,14.47
2018-01-03T07:36:58.126Z,9.53
2018-01-03T07:39:27.817Z,12.63
2018-01-03T07:41:56.727Z,17.90
2018-01-03T07:44:26.082Z,17.03
2018-01-03T07:46:54.348Z,10.83
2018-01-03T07:49:23.941Z,20.00
2018-01-03T07:51:52.832Z,10.23
2018-01-03T07:54:21.855Z,8.93
2018-01-03T07:56:50.081Z,11.37
2018-01-03T07:59:18.335Z,16.83
2018-01-03T08:01:46.620Z,21.63
2018-01-03T08:04:16.360Z,12.00
2018-01-03T08:06:44.610Z,16.00
2018-01-03T08:09:12.899Z,13.73
2018-01-03T08:11:41.151Z,19.80
2018-01-03T08:14:09.406Z,13.93
2018-01-03T08:16:37.673Z,13.03
2018-01-03T08:19:05.905Z,22.20
2018-01-03T08:21:35.488Z,13.60
2018-01-03T08:24:04.999Z,35.20
2018-01-03T08:26:33.107Z,17.03
2018-01-03T08:29:02.105Z,13.10
2018-01-03T08:31:31.531Z,24.53
2018-01-03T08:33:59.768Z,6.90
2018-01-03T08:36:28.779Z,10.67
2018-01-03T08:38:57.857Z,18.13
2018-01-03T08:41:26.089Z,22.23
2018-01-03T08:43:54.316Z,15.27
2018-01-03T08:46:22.600Z,10.80
2018-01-03T08:48:50.833Z,14.23
2018-01-03T08:51:19.080Z,9.53
2018-01-03T08:53:47.340Z,13.80
2018-01-03T08:56:15.573Z,14.80
2018-01-03T08:58:45.164Z,18.80
2018-01-03T09:01:14.691Z,27.00
2018-01-03T09:03:43.594Z,15.57
2018-01-03T09:06:11.844Z,13.40
2018-01-03T09:08:40.554Z,12.10
2018-01-03T09:11:10.291Z,14.60
2018-01-03T09:13:38.521Z,16.43
2018-01-03T09:16:06.801Z,16.00
2018-01-03T09:18:35.788Z,17.73
2018-01-03T09:21:04.017Z,24.17
2018-01-03T09:23:32.576Z,19.77
2018-01-03T09:26:01.943Z,11.93
2018-01-03T09:28:30.192Z,17.90
2018-01-03T09:30:58.903Z,24.23
2018-01-03T09:33:27.127Z,16.30
2018-01-03T09:35:55.800Z,20.73
2018-01-03T09:38:25.595Z,22.17
2018-01-03T09:40:53.828Z,22.30
2018-01-03T09:43:23.196Z,28.00
2018-01-03T09:45:52.838Z,32.43
2018-01-03T09:48:21.727Z,25.80
2018-01-03T09:50:49.957Z,23.33
2018-01-03T09:53:18.243Z,26.37
2018-01-03T09:55:47.608Z,21.07
2018-01-03T09:58:15.863Z,17.60
2018-01-03T10:00:45.650Z,28.33
2018-01-03T10:03:13.766Z,23.40
2018-01-03T10:05:42.005Z,23.87
2018-01-03T10:08:11.655Z,21.57
2018-01-03T10:10:40.173Z,21.07
2018-01-03T10:13:08.440Z,14.27
2018-01-03T10:15:38.228Z,19.43
2018-01-03T10:18:07.596Z,15.10
2018-01-03T10:20:36.619Z,21.87
2018-01-03T10:23:06.412Z,26.67
2018-01-03T10:25:36.029Z,17.57
2018-01-03T10:28:05.043Z,13.07
2018-01-03T10:30:34.960Z,14.57
2018-01-03T10:33:03.831Z,12.20
2018-01-03T10:35:32.084Z,13.00
2018-01-03T10:38:01.704Z,18.13
2018-01-03T10:40:31.164Z,20.37
2018-01-03T10:43:00.779Z,17.40
2018-01-03T10:45:29.840Z,14.03
2018-01-03T10:47:58.093Z,12.27
2018-01-03T10:50:27.707Z,12.93
2018-01-03T10:52:56.043Z,18.77
2018-01-03T10:55:24.281Z,19.70
2018-01-03T10:57:52.508Z,16.67
2018-01-03T11:00:20.788Z,26.93
2018-01-03T11:02:49.020Z,20.80
2018-01-03T11:05:17.272Z,19.07
2018-01-03T11:07:45.552Z,13.50
2018-01-03T11:10:15.288Z,26.13
2018-01-03T11:12:43.525Z,16.63
2018-01-03T11:15:11.820Z,19.30
2018-01-03T11:17:40.048Z,19.10
2018-01-03T11:20:09.408Z,16.83
2018-01-03T11:22:38.445Z,27.13
2018-01-03T11:25:07.459Z,24.00
2018-01-03T11:27:37.045Z,16.40
2018-01-03T11:30:06.000Z,11.50
2018-01-03T11:32:34.208Z,16.27
2018-01-03T11:35:02.476Z,17.30
2018-01-03T11:37:30.754Z,10.03
2018-01-03T11:39:59.711Z,14.63
2018-01-03T11:42:28.352Z,20.73
2018-01-03T11:44:56.633Z,13.30
2018-01-03T11:47:26.215Z,26.30
2018-01-03T11:49:55.096Z,12.23
2018-01-03T11:52:23.356Z,21.53
2018-01-03T11:54:52.972Z,19.70
2018-01-03T11:57:21.844Z,18.70
2018-01-03T11:59:51.007Z,14.73
2018-01-03T12:02:19.254Z,17.57
2018-01-03T12:04:48.273Z,18.93
2018-01-03T12:07:17.339Z,13.33
2018-01-03T12:09:45.572Z,19.00
2018-01-03T12:12:13.820Z,17.90
2018-01-03T12:14:44.230Z,19.87
2018-01-03T12:17:12.464Z,24.60
2018-01-03T12:19:41.828Z,14.53
2018-01-03T12:22:10.914Z,14.80
2018-01-03T12:24:40.304Z,9.37
2018-01-03T12:27:08.524Z,14.73
2018-01-03T12:29:38.147Z,21.33
2018-01-03T12:32:07.783Z,15.73
2018-01-03T12:34:37.521Z,20.47
2018-01-03T12:37:06.568Z,20.20
2018-01-03T12:39:35.936Z,20.33
2018-01-03T12:42:05.676Z,25.17
2018-01-03T12:44:33.948Z,27.57
2018-01-03T12:47:02.197Z,15.97
2018-01-03T12:49:31.231Z,16.90
2018-01-03T12:52:00.850Z,14.83
2018-01-03T12:54:29.377Z,18.87
2018-01-03T12:56:57.643Z,23.17
2018-01-03T12:59:27.103Z,19.60
2018-01-03T13:01:55.732Z,19.03
2018-01-03T13:04:23.964Z,18.83
2018-01-03T13:06:52.251Z,12.90
2018-01-03T13:09:20.480Z,16.63
2018-01-03T13:11:48.745Z,21.17
2018-01-03T13:14:17.032Z,14.97
2018-01-03T13:16:45.262Z,27.13
2018-01-03T13:19:13.509Z,20.30
2018-01-03T13:21:43.146Z,13.33
2018-01-03T13:24:11.648Z,18.00
2018-01-03T13:26:40.644Z,10.87
2018-01-03T13:29:08.930Z,18.23
2018-01-03T13:31:37.163Z,20.97
2018-01-03T13:34:05.391Z,15.80
2018-01-03T13:36:33.687Z,16.80
2018-01-03T13:39:03.299Z,21.77
2018-01-03T13:41:31.420Z,13.83
2018-01-03T13:44:00.506Z,13.07
2018-01-03T13:46:28.764Z,18.63
2018-01-03T13:48:57.011Z,17.43
2018-01-03T13:51:26.445Z,9.07
2018-01-03T13:53:54.661Z,17.83
2018-01-03T13:56:24.246Z,14.23
2018-01-03T13:58:53.152Z,15.20
2018-01-03T14:01:21.387Z,19.03
2018-01-03T14:03:50.407Z,18.60
2018-01-03T14:06:20.498Z,13.77
2018-01-03T14:08:48.636Z,18.70
2018-01-03T14:11:18.247Z,15.83
2018-01-03T14:13:47.160Z,16.70
2018-01-03T14:16:16.910Z,8.27
2018-01-03T14:18:46.500Z,11.20
2018-01-03T14:21:15.980Z,13.00
2018-01-03T14:23:45.619Z,14.90
2018-01-03T14:26:13.867Z,15.23
2018-01-03T14:28:42.543Z,11.47
2018-01-03T14:31:10.773Z,10.70
2018-01-03T14:33:40.140Z,14.17
2018-01-03T14:36:08.404Z,18.40
2018-01-03T14:38:37.985Z,9.83
2018-01-03T14:41:06.860Z,17.90
2018-01-03T14:43:36.487Z,11.93
2018-01-03T14:46:04.617Z,9.63
2018-01-03T14:48:33.646Z,9.30
2018-01-03T14:51:03.271Z,8.03
2018-01-03T14:53:32.975Z,12.33
2018-01-03T14:56:01.219Z,19.30
2018-01-03T14:58:30.633Z,13.47
2018-01-03T15:00:59.668Z,9.50
2018-01-03T15:03:27.894Z,19.43
2018-01-03T15:05:57.537Z,16.03
2018-01-03T15:08:25.635Z,16.60
2018-01-03T15:10:54.678Z,30.73
2018-01-03T15:13:24.060Z,20.53
2018-01-03T15:15:52.356Z,17.10
2018-01-03T15:18:20.585Z,15.27
2018-01-03T15:20:48.900Z,14.80
2018-01-03T15:23:18.512Z,9.77
2018-01-03T15:25:47.021Z,8.90
2018-01-03T15:28:15.282Z,12.47
2018-01-03T15:30:43.551Z,14.27
2018-01-03T15:33:12.536Z,13.53
2018-01-03T15:35:40.824Z,10.77
2018-01-03T15:38:09.076Z,13.93
2018-01-03T15:40:37.320Z,14.57
2018-01-03T15:43:05.580Z,15.00
2018-01-03T15:45:33.867Z,14.33
2018-01-03T15:48:02.099Z,20.43
2018-01-03T15:50:30.417Z,16.97
2018-01-03T15:52:59.481Z,17.77
2018-01-03T15:55:27.763Z,20.50
2018-01-03T15:57:56.032Z,12.17
2018-01-03T16:00:24.256Z,16.93
2018-01-03T16:02:52.533Z,24.63
2018-01-03T16:05:20.791Z,14.73
2018-01-03T16:07:50.182Z,25.30
2018-01-03T16:10:19.321Z,21.40
2018-01-03T16:12:48.972Z,11.53
2018-01-03T16:15:18.661Z,28.60
2018-01-03T16:17:46.878Z,26.13
2018-01-03T16:20:15.147Z,14.07
2018-01-03T16:22:44.902Z,13.37
2018-01-03T16:25:13.140Z,17.80
2018-01-03T16:27:42.977Z,12.17
2018-01-03T16:30:11.196Z,21.33
2018-01-03T16:32:40.188Z,14.83
2018-01-03T16:35:08.451Z,13.47
2018-01-03T16:37:37.905Z,16.10
2018-01-03T16:40:06.508Z,18.83
2018-01-03T16:42:34.865Z,19.40
2018-01-03T16:45:04.632Z,16.03
2018-01-03T16:47:32.932Z,16.50
2018-01-03T16:50:01.312Z,17.93
2018-01-03T16:52:35.241Z,14.43
2018-01-03T16:55:04.338Z,18.83
2018-01-03T16:57:32.559Z,9.77
2018-01-03T17:00:02.316Z,15.80
2018-01-03T17:02:30.642Z,12.50
2018-01-03T17:04:58.961Z,17.17
2018-01-03T17:07:27.237Z,17.93
2018-01-03T17:09:55.661Z,11.23
2018-01-03T17:12:23.908Z,20.00
2018-01-03T17:14:53.271Z,14.27
2018-01-03T17:17:21.582Z,20.00
2018-01-03T17:19:49.829Z,19.50
2018-01-03T17:22:18.475Z,17.70
2018-01-03T17:24:48.095Z,15.40
2018-01-03T17:27:16.758Z,16.10
2018-01-03T17:29:46.550Z,18.07
2018-01-03T17:32:14.920Z,19.67
2018-01-03T17:34:44.000Z,15.53
2018-01-03T17:37:12.367Z,20.53
2018-01-03T17:39:40.718Z,17.83
2018-01-03T17:42:08.955Z,19.83
2018-01-03T17:44:38.395Z,26.10
2018-01-03T17:47:07.053Z,28.17
2018-01-03T17:49:35.375Z,13.70
2018-01-03T17:52:03.831Z,17.10
2018-01-03T17:54:33.522Z,16.53
2018-01-03T17:57:01.667Z,15.77
2018-01-03T17:59:30.131Z,19.10
2018-01-03T18:01:58.460Z,24.70
2018-01-03T18:04:28.155Z,29.13
2018-01-03T18:06:56.367Z,21.13
2018-01-03T18:09:26.041Z,14.10
2018-01-03T18:11:54.677Z,20.17
2018-01-03T18:14:23.739Z,18.90
2018-01-03T18:16:52.114Z,23.97
2018-01-03T18:19:21.241Z,24.63
2018-01-03T18:21:49.574Z,24.63
2018-01-03T18:24:18.292Z,21.63
2018-01-03T18:26:46.680Z,24.40
2018-01-03T18:29:15.199Z,29.23
2018-01-03T18:31:44.715Z,25.53
2018-01-03T18:34:12.982Z,7.67
2018-01-03T18:36:41.251Z,11.13
2018-01-03T18:39:10.036Z,16.20
2018-01-03T18:41:38.388Z,15.13
2018-01-03T18:44:08.030Z,8.00
2018-01-03T18:46:36.285Z,9.70
2018-01-03T18:49:06.103Z,3.07
2018-01-03T18:51:35.741Z,12.37
2018-01-03T18:54:04.753Z,18.77
2018-01-03T18:56:33.791Z,20.20
2018-01-03T18:59:03.437Z,14.27
2018-01-03T19:01:32.047Z,22.77
2018-01-03T19:04:00.374Z,21.13
2018-01-03T19:06:30.020Z,17.00
2018-01-03T19:08:58.246Z,22.33
2018-01-03T19:11:26.539Z,22.40
2018-01-03T19:13:55.568Z,29.00
2018-01-03T19:16:24.636Z,30.50
2018-01-03T19:18:54.290Z,46.90
2018-01-03T19:21:23.204Z,31.87
2018-01-03T19:23:51.911Z,38.03
2018-01-03T19:26:21.702Z,32.37
2018-01-03T19:28:49.972Z,23.03
2018-01-03T19:31:18.289Z,23.23
2018-01-03T19:33:46.676Z,29.33
2018-01-03T19:36:16.415Z,13.40
2018-01-03T19:38:44.754Z,11.83
2018-01-03T19:41:14.406Z,10.17
2018-01-03T19:43:43.687Z,11.00
2018-01-03T19:46:12.041Z,8.90
2018-01-03T19:48:40.291Z,8.33
2018-01-03T19:51:08.573Z,8.13
2018-01-03T19:53:37.768Z,18.00
2018-01-03T19:56:07.426Z,15.23
2018-01-03T19:58:36.756Z,13.87
2018-01-03T20:01:05.109Z,14.83
2018-01-03T20:03:33.379Z,26.13
2018-01-03T20:06:01.660Z,23.40
2018-01-03T20:08:30.040Z,21.07
2018-01-03T20:10:59.681Z,21.50
2018-01-03T20:13:27.848Z,20.77
2018-01-03T20:15:57.548Z,19.30
2018-01-03T20:18:28.036Z,24.73
2018-01-03T20:20:56.567Z,28.83
2018-01-03T20:23:25.676Z,32.83
2018-01-03T20:25:55.033Z,30.37
2018-01-03T20:28:23.700Z,28.93
2018-01-03T20:30:51.966Z,33.63
2018-01-03T20:33:20.313Z,25.37
2018-01-03T20:35:48.598Z,31.23
2018-01-03T20:38:18.046Z,34.63
2018-01-03T20:40:46.294Z,30.27
2018-01-03T20:43:14.558Z,37.20
2018-01-03T20:45:43.671Z,36.07
2018-01-03T20:48:13.081Z,24.00
2018-01-03T20:50:41.355Z,39.43
2018-01-03T20:53:09.758Z,27.33
2018-01-03T20:55:38.028Z,32.63
2018-01-03T20:58:07.046Z,28.83
2018-01-03T21:00:36.765Z,30.90
2018-01-03T21:03:05.287Z,18.20
2018-01-03T21:05:34.950Z,31.00
2018-01-03T21:08:03.572Z,24.33
2018-01-03T21:10:33.228Z,21.53
2018-01-03T21:13:01.818Z,19.53
2018-01-03T21:15:31.566Z,33.17
2018-01-03T21:18:00.512Z,27.40
2018-01-03T21:20:28.802Z,25.70
2018-01-03T21:22:57.175Z,29.23
2018-01-03T21:25:26.796Z,31.50
2018-01-03T21:27:56.300Z,22.40
2018-01-03T21:30:25.827Z,26.20
2018-01-03T21:32:55.288Z,19.90
2018-01-03T21:35:23.504Z,25.47
2018-01-03T21:37:51.847Z,40.03
2018-01-03T21:40:21.453Z,38.70
2018-01-03T21:42:51.130Z,27.00
2018-01-03T21:45:20.220Z,29.43
2018-01-03T21:47:48.888Z,24.70
2018-01-03T21:50:18.531Z,25.40
2018-01-03T21:52:48.390Z,28.10
2018-01-03T21:55:16.529Z,45.47
2018-01-03T21:57:45.963Z,33.27
2018-01-03T22:00:16.639Z,25.33
2018-01-03T22:02:45.924Z,29.87
2018-01-03T22:05:14.211Z,39.90
2018-01-03T22:07:42.530Z,32.50
2018-01-03T22:10:12.142Z,25.13
2018-01-03T22:12:41.081Z,32.83
2018-01-03T22:15:09.380Z,36.10
2018-01-03T22:17:37.668Z,26.77
2018-01-03T22:20:07.284Z,29.50
2018-01-03T22:22:35.873Z,30.47
2018-01-03T22:25:05.490Z,25.30
2018-01-03T22:27:35.182Z,24.53
2018-01-03T22:30:03.536Z,29.37
2018-01-03T22:32:33.184Z,26.70
2018-01-03T22:35:01.748Z,25.30
2018-01-03T22:37:30.081Z,32.13
2018-01-03T22:39:58.689Z,29.10
2018-01-03T22:42:27.725Z,35.43
2018-01-03T22:44:56.094Z,30.37
2018-01-03T22:47:24.319Z,32.80
2018-01-03T22:49:52.983Z,32.80
2018-01-03T22:52:21.306Z,32.67
2018-01-03T22:54:51.083Z,28.43
2018-01-03T22:57:19.362Z,26.47
2018-01-03T22:59:49.051Z,32.47
2018-01-03T23:02:17.618Z,28.53
2018-01-03T23:04:47.032Z,26.27
2018-01-03T23:07:16.104Z,21.80
2018-01-03T23:09:44.381Z,20.63
2018-01-03T23:12:13.410Z,29.53
2018-01-03T23:14:41.751Z,32.47
2018-01-03T23:17:10.021Z,22.47
2018-01-03T23:19:38.292Z,23.77
2018-01-03T23:22:06.766Z,29.23
2018-01-03T23:24:35.802Z,33.00
2018-01-03T23:27:04.489Z,24.97
2018-01-03T23:29:32.803Z,31.40
2018-01-03T23:32:02.458Z,22.33
2018-01-03T23:34:32.386Z,30.63
2018-01-03T23:37:01.454Z,29.90
2018-01-03T23:39:29.762Z,33.57
2018-01-03T23:41:59.186Z,22.63
2018-01-03T23:44:27.471Z,42.10
2018-01-03T23:46:55.732Z,29.23
2018-01-03T23:49:25.002Z,35.27
2018-01-03T23:51:54.575Z,39.40
2018-01-03T23:54:23.118Z,26.30
2018-01-03T23:56:51.437Z,32.33
2018-01-03T23:59:19.710Z,25.50
